LFMV/AVN METAR and TAF weather

Enter ICAO airport designator
Station Type Date Time Source
LFMV METAR 2022/06/30 02:00 UTC NOAA

LFMV 300200Z AUTO 00000KT CAVOK 19/16 Q1012


Station Type Date Time Source
LFMV Decoded METAR 2022/06/30 02:00 UTC NOAA

Station name not available
Jun 29, 2022 - 10:00 PM EDT / 2022.06.30 0200 UTC
Wind: Calm:0
Visibility: greater than 7 mile(s):0
Temperature: 66 F (19 C)
Dew Point: 60 F (16 C)
Relative Humidity: 82%
Pressure (altimeter): 29.88 in. Hg (1012 hPa)
ob: LFMV 300200Z AUTO 00000KT CAVOK 19/16 Q1012
cycle: 2

Station Type Date Time Source
LFMV TAF 2022/06/29 20:00 UTC NOAA

TAF
AMD LFMV 292000Z 2920/3015 CNL

Example: see airport list